sensor_id;sensor_type;location;lat;lon;timestamp;P1;durP1;ratioP1;P2;durP2;ratioP2
75935;SDS011;64614;32.062;34.834;2023-04-29T00:02:00;3.47;;;1.48;;
75935;SDS011;64614;32.062;34.834;2023-04-29T00:04:26;4.10;;;1.35;;
75935;SDS011;64614;32.062;34.834;2023-04-29T00:06:52;3.75;;;1.38;;
75935;SDS011;64614;32.062;34.834;2023-04-29T00:09:18;4.28;;;1.80;;
75935;SDS011;64614;32.062;34.834;2023-04-29T00:11:43;4.80;;;1.60;;
75935;SDS011;64614;32.062;34.834;2023-04-29T00:14:11;3.75;;;1.40;;
75935;SDS011;64614;32.062;34.834;2023-04-29T00:16:36;2.85;;;1.50;;
75935;SDS011;64614;32.062;34.834;2023-04-29T00:19:02;3.70;;;1.40;;
75935;SDS011;64614;32.062;34.834;2023-04-29T00:21:28;5.25;;;1.52;;
75935;SDS011;64614;32.062;34.834;2023-04-29T00:23:54;4.07;;;1.50;;
75935;SDS011;64614;32.062;34.834;2023-04-29T00:26:20;5.65;;;1.70;;
75935;SDS011;64614;32.062;34.834;2023-04-29T00:28:45;3.00;;;1.30;;
75935;SDS011;64614;32.062;34.834;2023-04-29T00:31:11;2.85;;;1.30;;
75935;SDS011;64614;32.062;34.834;2023-04-29T00:33:37;2.92;;;1.50;;
75935;SDS011;64614;32.062;34.834;2023-04-29T00:36:05;3.35;;;1.50;;
75935;SDS011;64614;32.062;34.834;2023-04-29T00:38:31;3.45;;;1.40;;
75935;SDS011;64614;32.062;34.834;2023-04-29T00:40:56;4.93;;;1.50;;
75935;SDS011;64614;32.062;34.834;2023-04-29T00:43:22;3.60;;;1.55;;
75935;SDS011;64614;32.062;34.834;2023-04-29T00:45:48;3.53;;;1.45;;
75935;SDS011;64614;32.062;34.834;2023-04-29T00:48:14;3.40;;;1.50;;
75935;SDS011;64614;32.062;34.834;2023-04-29T00:50:40;3.03;;;1.42;;
75935;SDS011;64614;32.062;34.834;2023-04-29T00:53:07;3.85;;;1.65;;
75935;SDS011;64614;32.062;34.834;2023-04-29T00:55:34;3.38;;;1.35;;
75935;SDS011;64614;32.062;34.834;2023-04-29T00:58:01;3.97;;;1.40;;
75935;SDS011;64614;32.062;34.834;2023-04-29T01:00:28;3.95;;;1.38;;
75935;SDS011;64614;32.062;34.834;2023-04-29T01:02:54;4.53;;;1.58;;
75935;SDS011;64614;32.062;34.834;2023-04-29T01:07:58;3.85;;;1.40;;
75935;SDS011;64614;32.062;34.834;2023-04-29T01:13:13;4.05;;;1.42;;
75935;SDS011;64614;32.062;34.834;2023-04-29T01:15:53;3.97;;;1.40;;
75935;SDS011;64614;32.062;34.834;2023-04-29T01:18:33;3.22;;;1.45;;
75935;SDS011;64614;32.062;34.834;2023-04-29T01:21:03;4.47;;;1.52;;
75935;SDS011;64614;32.062;34.834;2023-04-29T01:23:29;3.92;;;1.70;;
75935;SDS011;64614;32.062;34.834;2023-04-29T01:25:55;4.18;;;1.48;;
75935;SDS011;64614;32.062;34.834;2023-04-29T01:33:58;3.80;;;1.17;;
75935;SDS011;64614;32.062;34.834;2023-04-29T01:39:18;4.35;;;1.60;;
75935;SDS011;64614;32.062;34.834;2023-04-29T01:44:26;3.42;;;1.35;;
75935;SDS011;64614;32.062;34.834;2023-04-29T01:46:55;2.85;;;1.50;;
75935;SDS011;64614;32.062;34.834;2023-04-29T01:49:26;3.42;;;1.50;;
75935;SDS011;64614;32.062;34.834;2023-04-29T01:51:53;4.63;;;1.70;;
75935;SDS011;64614;32.062;34.834;2023-04-29T01:54:20;5.20;;;1.83;;
75935;SDS011;64614;32.062;34.834;2023-04-29T01:56:50;3.60;;;1.60;;
75935;SDS011;64614;32.062;34.834;2023-04-29T01:59:16;4.85;;;1.80;;
75935;SDS011;64614;32.062;34.834;2023-04-29T02:01:41;4.85;;;1.80;;
75935;SDS011;64614;32.062;34.834;2023-04-29T02:04:07;3.72;;;1.60;;
75935;SDS011;64614;32.062;34.834;2023-04-29T02:06:33;4.82;;;1.70;;
75935;SDS011;64614;32.062;34.834;2023-04-29T02:08:59;4.70;;;1.70;;
75935;SDS011;64614;32.062;34.834;2023-04-29T02:11:24;3.92;;;1.70;;
75935;SDS011;64614;32.062;34.834;2023-04-29T02:13:50;3.03;;;1.50;;
75935;SDS011;64614;32.062;34.834;2023-04-29T02:16:16;3.30;;;1.45;;
75935;SDS011;64614;32.062;34.834;2023-04-29T02:18:42;3.67;;;1.60;;
75935;SDS011;64614;32.062;34.834;2023-04-29T02:21:08;4.55;;;1.60;;
75935;SDS011;64614;32.062;34.834;2023-04-29T02:23:34;3.17;;;1.70;;
75935;SDS011;64614;32.062;34.834;2023-04-29T02:26:00;4.22;;;1.65;;
75935;SDS011;64614;32.062;34.834;2023-04-29T02:28:28;4.15;;;1.75;;
75935;SDS011;64614;32.062;34.834;2023-04-29T02:30:53;3.72;;;1.63;;
75935;SDS011;64614;32.062;34.834;2023-04-29T02:33:19;5.22;;;1.60;;
75935;SDS011;64614;32.062;34.834;2023-04-29T02:35:45;4.07;;;1.65;;
75935;SDS011;64614;32.062;34.834;2023-04-29T02:38:11;4.05;;;1.52;;
75935;SDS011;64614;32.062;34.834;2023-04-29T02:40:43;4.57;;;1.50;;
75935;SDS011;64614;32.062;34.834;2023-04-29T02:43:09;3.97;;;1.48;;
75935;SDS011;64614;32.062;34.834;2023-04-29T02:45:36;4.10;;;1.77;;
75935;SDS011;64614;32.062;34.834;2023-04-29T02:48:03;3.72;;;1.73;;
75935;SDS011;64614;32.062;34.834;2023-04-29T02:50:29;4.20;;;1.70;;
75935;SDS011;64614;32.062;34.834;2023-04-29T02:52:55;4.10;;;1.50;;
75935;SDS011;64614;32.062;34.834;2023-04-29T02:55:21;2.75;;;1.50;;
75935;SDS011;64614;32.062;34.834;2023-04-29T02:57:47;3.70;;;1.60;;
75935;SDS011;64614;32.062;34.834;2023-04-29T03:00:13;4.55;;;1.90;;
75935;SDS011;64614;32.062;34.834;2023-04-29T03:02:39;3.42;;;1.65;;
75935;SDS011;64614;32.062;34.834;2023-04-29T03:05:04;2.83;;;1.60;;
75935;SDS011;64614;32.062;34.834;2023-04-29T03:07:31;3.25;;;1.40;;
75935;SDS011;64614;32.062;34.834;2023-04-29T03:09:56;3.58;;;1.40;;
75935;SDS011;64614;32.062;34.834;2023-04-29T03:12:22;3.17;;;1.70;;
75935;SDS011;64614;32.062;34.834;2023-04-29T03:14:48;3.38;;;1.48;;
75935;SDS011;64614;32.062;34.834;2023-04-29T03:17:14;3.45;;;1.55;;
75935;SDS011;64614;32.062;34.834;2023-04-29T03:19:40;3.85;;;1.50;;
75935;SDS011;64614;32.062;34.834;2023-04-29T03:22:05;4.68;;;1.50;;
75935;SDS011;64614;32.062;34.834;2023-04-29T03:24:35;4.25;;;1.50;;
75935;SDS011;64614;32.062;34.834;2023-04-29T03:27:01;3.92;;;1.70;;
75935;SDS011;64614;32.062;34.834;2023-04-29T03:29:28;5.95;;;1.80;;
75935;SDS011;64614;32.062;34.834;2023-04-29T03:31:55;3.40;;;1.75;;
75935;SDS011;64614;32.062;34.834;2023-04-29T03:34:21;4.30;;;1.70;;
75935;SDS011;64614;32.062;34.834;2023-04-29T03:36:46;5.00;;;1.88;;
75935;SDS011;64614;32.062;34.834;2023-04-29T03:39:12;4.10;;;1.73;;
75935;SDS011;64614;32.062;34.834;2023-04-29T03:41:38;3.55;;;1.65;;
75935;SDS011;64614;32.062;34.834;2023-04-29T03:44:04;4.53;;;1.60;;
75935;SDS011;64614;32.062;34.834;2023-04-29T03:46:30;5.07;;;1.90;;
75935;SDS011;64614;32.062;34.834;2023-04-29T03:48:56;3.63;;;1.70;;
75935;SDS011;64614;32.062;34.834;2023-04-29T03:51:25;7.22;;;2.22;;
75935;SDS011;64614;32.062;34.834;2023-04-29T03:53:54;6.65;;;2.10;;
75935;SDS011;64614;32.062;34.834;2023-04-29T03:56:23;6.22;;;2.42;;
75935;SDS011;64614;32.062;34.834;2023-04-29T03:58:50;5.75;;;2.30;;
75935;SDS011;64614;32.062;34.834;2023-04-29T04:01:16;4.97;;;2.22;;
75935;SDS011;64614;32.062;34.834;2023-04-29T04:03:42;6.68;;;2.13;;
75935;SDS011;64614;32.062;34.834;2023-04-29T04:06:08;5.18;;;2.40;;
75935;SDS011;64614;32.062;34.834;2023-04-29T04:08:33;5.72;;;2.40;;
75935;SDS011;64614;32.062;34.834;2023-04-29T04:11:02;5.75;;;2.60;;
75935;SDS011;64614;32.062;34.834;2023-04-29T04:13:28;5.35;;;2.42;;
75935;SDS011;64614;32.062;34.834;2023-04-29T04:15:54;7.55;;;2.70;;
75935;SDS011;64614;32.062;34.834;2023-04-29T04:18:20;8.05;;;2.30;;
75935;SDS011;64614;32.062;34.834;2023-04-29T04:20:45;4.82;;;2.10;;
75935;SDS011;64614;32.062;34.834;2023-04-29T04:23:11;8.00;;;2.60;;
75935;SDS011;64614;32.062;34.834;2023-04-29T04:25:37;7.57;;;2.60;;
75935;SDS011;64614;32.062;34.834;2023-04-29T04:28:08;7.07;;;2.40;;
75935;SDS011;64614;32.062;34.834;2023-04-29T04:30:34;6.60;;;2.15;;
75935;SDS011;64614;32.062;34.834;2023-04-29T04:33:00;5.25;;;2.05;;
75935;SDS011;64614;32.062;34.834;2023-04-29T04:35:26;6.80;;;2.50;;
75935;SDS011;64614;32.062;34.834;2023-04-29T04:37:52;5.38;;;2.40;;
75935;SDS011;64614;32.062;34.834;2023-04-29T04:40:18;5.95;;;2.25;;
75935;SDS011;64614;32.062;34.834;2023-04-29T04:42:43;4.55;;;1.95;;
75935;SDS011;64614;32.062;34.834;2023-04-29T04:45:09;6.43;;;2.10;;
75935;SDS011;64614;32.062;34.834;2023-04-29T04:47:35;6.90;;;2.25;;
75935;SDS011;64614;32.062;34.834;2023-04-29T04:50:01;5.60;;;1.98;;
75935;SDS011;64614;32.062;34.834;2023-04-29T04:52:28;5.40;;;1.98;;
75935;SDS011;64614;32.062;34.834;2023-04-29T04:54:54;5.20;;;1.98;;
75935;SDS011;64614;32.062;34.834;2023-04-29T04:57:20;5.13;;;1.85;;
75935;SDS011;64614;32.062;34.834;2023-04-29T04:59:45;6.13;;;2.15;;
75935;SDS011;64614;32.062;34.834;2023-04-29T05:02:11;5.15;;;2.10;;
75935;SDS011;64614;32.062;34.834;2023-04-29T05:04:37;6.53;;;2.20;;
75935;SDS011;64614;32.062;34.834;2023-04-29T05:07:02;5.55;;;2.15;;
75935;SDS011;64614;32.062;34.834;2023-04-29T05:09:28;4.95;;;2.10;;
75935;SDS011;64614;32.062;34.834;2023-04-29T05:11:54;5.00;;;2.10;;
75935;SDS011;64614;32.062;34.834;2023-04-29T05:14:20;5.70;;;2.10;;
75935;SDS011;64614;32.062;34.834;2023-04-29T05:16:45;4.97;;;2.13;;
75935;SDS011;64614;32.062;34.834;2023-04-29T05:19:12;6.22;;;2.20;;
75935;SDS011;64614;32.062;34.834;2023-04-29T05:21:38;4.47;;;1.80;;
75935;SDS011;64614;32.062;34.834;2023-04-29T05:24:04;4.85;;;1.95;;
75935;SDS011;64614;32.062;34.834;2023-04-29T05:26:30;5.38;;;2.25;;
75935;SDS011;64614;32.062;34.834;2023-04-29T05:28:55;6.50;;;2.20;;
75935;SDS011;64614;32.062;34.834;2023-04-29T05:31:21;6.65;;;2.13;;
75935;SDS011;64614;32.062;34.834;2023-04-29T05:33:47;7.03;;;2.63;;
75935;SDS011;64614;32.062;34.834;2023-04-29T05:36:13;7.45;;;2.45;;
75935;SDS011;64614;32.062;34.834;2023-04-29T05:38:38;7.20;;;2.63;;
75935;SDS011;64614;32.062;34.834;2023-04-29T05:41:04;5.53;;;2.20;;
75935;SDS011;64614;32.062;34.834;2023-04-29T05:43:30;6.28;;;2.22;;
75935;SDS011;64614;32.062;34.834;2023-04-29T05:48:20;5.63;;;2.17;;
75935;SDS011;64614;32.062;34.834;2023-04-29T05:53:20;6.75;;;2.60;;
75935;SDS011;64614;32.062;34.834;2023-04-29T05:55:46;5.38;;;2.28;;
75935;SDS011;64614;32.062;34.834;2023-04-29T05:58:12;7.53;;;2.20;;
75935;SDS011;64614;32.062;34.834;2023-04-29T06:00:39;6.60;;;2.25;;
75935;SDS011;64614;32.062;34.834;2023-04-29T06:03:06;7.45;;;2.45;;
75935;SDS011;64614;32.062;34.834;2023-04-29T06:05:31;5.47;;;2.33;;
75935;SDS011;64614;32.062;34.834;2023-04-29T06:10:33;6.75;;;2.45;;
75935;SDS011;64614;32.062;34.834;2023-04-29T06:13:01;6.57;;;2.22;;
75935;SDS011;64614;32.062;34.834;2023-04-29T06:15:26;6.85;;;2.60;;
75935;SDS011;64614;32.062;34.834;2023-04-29T06:17:54;6.78;;;2.03;;
75935;SDS011;64614;32.062;34.834;2023-04-29T06:20:20;5.20;;;2.03;;
75935;SDS011;64614;32.062;34.834;2023-04-29T06:22:46;5.10;;;2.40;;
75935;SDS011;64614;32.062;34.834;2023-04-29T06:25:11;5.60;;;2.20;;
75935;SDS011;64614;32.062;34.834;2023-04-29T06:27:41;6.32;;;2.50;;
75935;SDS011;64614;32.062;34.834;2023-04-29T06:30:07;7.18;;;2.28;;
75935;SDS011;64614;32.062;34.834;2023-04-29T06:32:33;5.32;;;2.00;;
75935;SDS011;64614;32.062;34.834;2023-04-29T06:34:59;5.85;;;2.15;;
75935;SDS011;64614;32.062;34.834;2023-04-29T06:37:25;6.57;;;2.58;;
75935;SDS011;64614;32.062;34.834;2023-04-29T06:39:52;5.88;;;2.10;;
75935;SDS011;64614;32.062;34.834;2023-04-29T06:42:18;7.43;;;2.35;;
75935;SDS011;64614;32.062;34.834;2023-04-29T06:44:44;3.83;;;2.00;;
75935;SDS011;64614;32.062;34.834;2023-04-29T06:47:09;6.93;;;2.20;;
75935;SDS011;64614;32.062;34.834;2023-04-29T06:49:35;5.78;;;2.10;;
75935;SDS011;64614;32.062;34.834;2023-04-29T06:52:01;6.32;;;2.20;;
75935;SDS011;64614;32.062;34.834;2023-04-29T06:54:26;5.03;;;2.17;;
75935;SDS011;64614;32.062;34.834;2023-04-29T06:56:52;5.47;;;2.25;;
75935;SDS011;64614;32.062;34.834;2023-04-29T06:59:18;5.07;;;2.13;;
75935;SDS011;64614;32.062;34.834;2023-04-29T07:01:44;4.78;;;2.17;;
75935;SDS011;64614;32.062;34.834;2023-04-29T07:04:10;7.88;;;2.60;;
75935;SDS011;64614;32.062;34.834;2023-04-29T07:06:36;5.15;;;2.15;;
75935;SDS011;64614;32.062;34.834;2023-04-29T07:09:02;5.88;;;2.20;;
75935;SDS011;64614;32.062;34.834;2023-04-29T07:11:30;4.70;;;2.10;;
75935;SDS011;64614;32.062;34.834;2023-04-29T07:13:56;6.25;;;2.35;;
75935;SDS011;64614;32.062;34.834;2023-04-29T07:16:22;5.47;;;2.05;;
75935;SDS011;64614;32.062;34.834;2023-04-29T07:18:50;4.20;;;2.13;;
75935;SDS011;64614;32.062;34.834;2023-04-29T07:21:16;6.65;;;2.47;;
75935;SDS011;64614;32.062;34.834;2023-04-29T07:26:12;5.43;;;2.45;;
75935;SDS011;64614;32.062;34.834;2023-04-29T07:28:40;5.18;;;2.40;;
75935;SDS011;64614;32.062;34.834;2023-04-29T07:31:06;5.90;;;2.25;;
75935;SDS011;64614;32.062;34.834;2023-04-29T07:33:33;6.85;;;2.40;;
75935;SDS011;64614;32.062;34.834;2023-04-29T07:35:59;5.60;;;2.67;;
75935;SDS011;64614;32.062;34.834;2023-04-29T07:38:25;6.45;;;2.22;;
75935;SDS011;64614;32.062;34.834;2023-04-29T07:40:51;7.20;;;2.42;;
75935;SDS011;64614;32.062;34.834;2023-04-29T07:43:16;5.72;;;2.55;;
75935;SDS011;64614;32.062;34.834;2023-04-29T07:45:42;5.32;;;2.38;;
75935;SDS011;64614;32.062;34.834;2023-04-29T07:48:08;5.72;;;2.53;;
75935;SDS011;64614;32.062;34.834;2023-04-29T07:50:34;5.93;;;2.75;;
75935;SDS011;64614;32.062;34.834;2023-04-29T07:53:00;8.90;;;2.67;;
75935;SDS011;64614;32.062;34.834;2023-04-29T07:55:27;5.57;;;2.25;;
75935;SDS011;64614;32.062;34.834;2023-04-29T07:57:54;5.60;;;2.65;;
75935;SDS011;64614;32.062;34.834;2023-04-29T08:00:20;5.22;;;2.30;;
75935;SDS011;64614;32.062;34.834;2023-04-29T08:02:50;4.70;;;2.13;;
75935;SDS011;64614;32.062;34.834;2023-04-29T08:05:16;6.38;;;2.20;;
75935;SDS011;64614;32.062;34.834;2023-04-29T08:07:43;5.63;;;2.30;;
75935;SDS011;64614;32.062;34.834;2023-04-29T08:10:09;5.63;;;2.20;;
75935;SDS011;64614;32.062;34.834;2023-04-29T08:12:34;7.75;;;2.17;;
75935;SDS011;64614;32.062;34.834;2023-04-29T08:15:00;5.63;;;2.30;;
75935;SDS011;64614;32.062;34.834;2023-04-29T08:17:26;5.60;;;2.33;;
75935;SDS011;64614;32.062;34.834;2023-04-29T08:19:54;6.28;;;2.28;;
75935;SDS011;64614;32.062;34.834;2023-04-29T08:22:20;6.38;;;2.25;;
75935;SDS011;64614;32.062;34.834;2023-04-29T08:24:46;5.28;;;2.30;;
75935;SDS011;64614;32.062;34.834;2023-04-29T08:27:12;5.55;;;2.30;;
75935;SDS011;64614;32.062;34.834;2023-04-29T08:29:39;4.97;;;2.22;;
75935;SDS011;64614;32.062;34.834;2023-04-29T08:32:06;4.47;;;2.17;;
75935;SDS011;64614;32.062;34.834;2023-04-29T08:40:02;6.15;;;2.25;;
75935;SDS011;64614;32.062;34.834;2023-04-29T08:42:33;6.10;;;2.10;;
75935;SDS011;64614;32.062;34.834;2023-04-29T08:45:01;6.43;;;2.35;;
75935;SDS011;64614;32.062;34.834;2023-04-29T08:47:31;5.20;;;2.20;;
75935;SDS011;64614;32.062;34.834;2023-04-29T08:50:01;6.00;;;2.08;;
75935;SDS011;64614;32.062;34.834;2023-04-29T08:52:29;3.50;;;1.95;;
75935;SDS011;64614;32.062;34.834;2023-04-29T08:54:58;4.50;;;2.03;;
75935;SDS011;64614;32.062;34.834;2023-04-29T08:57:26;4.72;;;2.10;;
75935;SDS011;64614;32.062;34.834;2023-04-29T08:59:54;4.30;;;2.00;;
75935;SDS011;64614;32.062;34.834;2023-04-29T09:02:19;4.28;;;1.88;;
75935;SDS011;64614;32.062;34.834;2023-04-29T09:07:35;6.25;;;2.20;;
75935;SDS011;64614;32.062;34.834;2023-04-29T09:10:05;4.47;;;2.20;;
75935;SDS011;64614;32.062;34.834;2023-04-29T09:12:32;4.97;;;2.00;;
75935;SDS011;64614;32.062;34.834;2023-04-29T09:14:58;4.85;;;2.03;;
75935;SDS011;64614;32.062;34.834;2023-04-29T09:17:37;3.47;;;1.90;;
75935;SDS011;64614;32.062;34.834;2023-04-29T09:22:48;5.00;;;2.28;;
75935;SDS011;64614;32.062;34.834;2023-04-29T09:25:15;4.90;;;2.20;;
75935;SDS011;64614;32.062;34.834;2023-04-29T09:27:41;6.10;;;2.35;;
75935;SDS011;64614;32.062;34.834;2023-04-29T09:30:07;4.78;;;2.30;;
75935;SDS011;64614;32.062;34.834;2023-04-29T09:32:33;5.18;;;2.20;;
75935;SDS011;64614;32.062;34.834;2023-04-29T09:38:06;5.88;;;2.33;;
75935;SDS011;64614;32.062;34.834;2023-04-29T09:40:34;4.63;;;2.00;;
75935;SDS011;64614;32.062;34.834;2023-04-29T09:43:00;4.13;;;2.20;;
75935;SDS011;64614;32.062;34.834;2023-04-29T09:45:35;5.28;;;2.08;;
75935;SDS011;64614;32.062;34.834;2023-04-29T09:48:03;6.28;;;2.30;;
75935;SDS011;64614;32.062;34.834;2023-04-29T09:50:33;4.15;;;1.98;;
75935;SDS011;64614;32.062;34.834;2023-04-29T09:53:27;5.72;;;2.13;;
75935;SDS011;64614;32.062;34.834;2023-04-29T09:58:45;6.82;;;2.45;;
75935;SDS011;64614;32.062;34.834;2023-04-29T10:06:13;4.82;;;2.03;;
75935;SDS011;64614;32.062;34.834;2023-04-29T10:29:58;6.38;;;2.20;;
75935;SDS011;64614;32.062;34.834;2023-04-29T10:32:26;4.57;;;2.00;;
75935;SDS011;64614;32.062;34.834;2023-04-29T10:37:37;5.28;;;2.40;;
75935;SDS011;64614;32.062;34.834;2023-04-29T10:42:47;4.07;;;1.95;;
75935;SDS011;64614;32.062;34.834;2023-04-29T10:45:17;5.50;;;1.90;;
75935;SDS011;64614;32.062;34.834;2023-04-29T10:48:12;4.75;;;2.13;;
75935;SDS011;64614;32.062;34.834;2023-04-29T10:55:41;6.63;;;1.95;;
75935;SDS011;64614;32.062;34.834;2023-04-29T11:00:59;6.15;;;2.00;;
75935;SDS011;64614;32.062;34.834;2023-04-29T11:06:11;3.90;;;1.70;;
75935;SDS011;64614;32.062;34.834;2023-04-29T11:08:37;4.85;;;1.88;;
75935;SDS011;64614;32.062;34.834;2023-04-29T11:11:07;4.70;;;1.98;;
75935;SDS011;64614;32.062;34.834;2023-04-29T11:13:39;5.85;;;1.83;;
75935;SDS011;64614;32.062;34.834;2023-04-29T11:16:05;4.88;;;1.88;;
75935;SDS011;64614;32.062;34.834;2023-04-29T11:18:32;4.32;;;1.77;;
75935;SDS011;64614;32.062;34.834;2023-04-29T11:23:39;3.63;;;1.70;;
75935;SDS011;64614;32.062;34.834;2023-04-29T11:26:06;4.90;;;2.00;;
75935;SDS011;64614;32.062;34.834;2023-04-29T11:28:32;4.28;;;1.63;;
75935;SDS011;64614;32.062;34.834;2023-04-29T11:30:59;5.55;;;1.90;;
75935;SDS011;64614;32.062;34.834;2023-04-29T11:33:25;4.45;;;1.90;;
75935;SDS011;64614;32.062;34.834;2023-04-29T11:35:54;4.45;;;1.90;;
75935;SDS011;64614;32.062;34.834;2023-04-29T11:38:27;4.20;;;1.80;;
75935;SDS011;64614;32.062;34.834;2023-04-29T11:40:54;5.22;;;2.05;;
75935;SDS011;64614;32.062;34.834;2023-04-29T11:43:22;5.32;;;1.90;;
75935;SDS011;64614;32.062;34.834;2023-04-29T11:45:48;4.80;;;1.90;;
75935;SDS011;64614;32.062;34.834;2023-04-29T11:48:22;4.68;;;2.05;;
75935;SDS011;64614;32.062;34.834;2023-04-29T11:50:50;6.85;;;2.25;;
75935;SDS011;64614;32.062;34.834;2023-04-29T11:53:23;4.78;;;1.92;;
75935;SDS011;64614;32.062;34.834;2023-04-29T11:55:53;4.70;;;2.00;;
75935;SDS011;64614;32.062;34.834;2023-04-29T11:58:19;5.50;;;2.10;;
75935;SDS011;64614;32.062;34.834;2023-04-29T12:00:46;4.18;;;2.00;;
75935;SDS011;64614;32.062;34.834;2023-04-29T12:03:13;5.30;;;2.10;;
75935;SDS011;64614;32.062;34.834;2023-04-29T12:08:19;4.25;;;1.85;;
75935;SDS011;64614;32.062;34.834;2023-04-29T12:10:48;3.13;;;1.63;;
75935;SDS011;64614;32.062;34.834;2023-04-29T12:13:18;5.25;;;2.00;;
75935;SDS011;64614;32.062;34.834;2023-04-29T12:15:45;4.88;;;2.05;;
75935;SDS011;64614;32.062;34.834;2023-04-29T12:18:12;4.05;;;1.80;;
75935;SDS011;64614;32.062;34.834;2023-04-29T12:20:39;4.30;;;1.90;;
75935;SDS011;64614;32.062;34.834;2023-04-29T12:23:12;7.28;;;2.30;;
75935;SDS011;64614;32.062;34.834;2023-04-29T12:25:52;5.13;;;1.95;;
75935;SDS011;64614;32.062;34.834;2023-04-29T12:28:20;5.05;;;1.90;;
75935;SDS011;64614;32.062;34.834;2023-04-29T12:30:47;4.30;;;2.30;;
75935;SDS011;64614;32.062;34.834;2023-04-29T12:33:20;6.30;;;2.33;;
75935;SDS011;64614;32.062;34.834;2023-04-29T12:35:47;4.88;;;2.03;;
75935;SDS011;64614;32.062;34.834;2023-04-29T12:40:40;6.03;;;2.20;;
75935;SDS011;64614;32.062;34.834;2023-04-29T12:43:09;5.63;;;1.95;;
75935;SDS011;64614;32.062;34.834;2023-04-29T12:45:35;5.75;;;2.22;;
75935;SDS011;64614;32.062;34.834;2023-04-29T12:48:00;5.15;;;2.05;;
75935;SDS011;64614;32.062;34.834;2023-04-29T12:50:30;4.22;;;2.22;;
75935;SDS011;64614;32.062;34.834;2023-04-29T12:52:57;5.45;;;2.20;;
75935;SDS011;64614;32.062;34.834;2023-04-29T12:55:23;5.07;;;2.00;;
75935;SDS011;64614;32.062;34.834;2023-04-29T12:57:49;5.38;;;2.20;;
75935;SDS011;64614;32.062;34.834;2023-04-29T13:00:16;5.60;;;2.38;;
75935;SDS011;64614;32.062;34.834;2023-04-29T13:02:44;5.40;;;1.98;;
75935;SDS011;64614;32.062;34.834;2023-04-29T13:05:10;5.38;;;2.10;;
75935;SDS011;64614;32.062;34.834;2023-04-29T13:07:36;7.00;;;2.53;;
75935;SDS011;64614;32.062;34.834;2023-04-29T13:10:03;10.70;;;3.05;;
75935;SDS011;64614;32.062;34.834;2023-04-29T13:12:32;6.10;;;2.55;;
75935;SDS011;64614;32.062;34.834;2023-04-29T13:14:58;6.38;;;2.40;;
75935;SDS011;64614;32.062;34.834;2023-04-29T13:17:25;5.30;;;2.38;;
75935;SDS011;64614;32.062;34.834;2023-04-29T13:19:51;9.48;;;2.90;;
75935;SDS011;64614;32.062;34.834;2023-04-29T13:22:16;6.53;;;2.95;;
75935;SDS011;64614;32.062;34.834;2023-04-29T13:24:42;6.72;;;2.67;;
75935;SDS011;64614;32.062;34.834;2023-04-29T13:27:08;11.15;;;2.45;;
75935;SDS011;64614;32.062;34.834;2023-04-29T13:29:34;6.47;;;2.50;;
75935;SDS011;64614;32.062;34.834;2023-04-29T13:32:01;7.03;;;2.40;;
75935;SDS011;64614;32.062;34.834;2023-04-29T13:34:27;6.15;;;2.30;;
75935;SDS011;64614;32.062;34.834;2023-04-29T13:36:53;6.63;;;2.40;;
75935;SDS011;64614;32.062;34.834;2023-04-29T13:39:18;7.80;;;2.70;;
75935;SDS011;64614;32.062;34.834;2023-04-29T13:41:46;6.25;;;2.65;;
75935;SDS011;64614;32.062;34.834;2023-04-29T13:44:12;8.63;;;2.60;;
75935;SDS011;64614;32.062;34.834;2023-04-29T13:46:38;7.28;;;2.90;;
75935;SDS011;64614;32.062;34.834;2023-04-29T14:14:51;5.40;;;2.33;;
75935;SDS011;64614;32.062;34.834;2023-04-29T14:17:17;6.05;;;2.35;;
75935;SDS011;64614;32.062;34.834;2023-04-29T14:19:45;5.13;;;2.38;;
75935;SDS011;64614;32.062;34.834;2023-04-29T14:22:11;4.28;;;2.10;;
75935;SDS011;64614;32.062;34.834;2023-04-29T14:24:37;6.03;;;2.35;;
75935;SDS011;64614;32.062;34.834;2023-04-29T14:27:04;4.70;;;2.45;;
75935;SDS011;64614;32.062;34.834;2023-04-29T14:29:30;5.82;;;2.30;;
75935;SDS011;64614;32.062;34.834;2023-04-29T14:31:56;5.70;;;2.58;;
75935;SDS011;64614;32.062;34.834;2023-04-29T14:39:32;4.88;;;2.00;;
75935;SDS011;64614;32.062;34.834;2023-04-29T14:41:58;6.63;;;2.38;;
75935;SDS011;64614;32.062;34.834;2023-04-29T14:44:23;5.50;;;2.50;;
75935;SDS011;64614;32.062;34.834;2023-04-29T14:54:35;6.30;;;2.50;;
75935;SDS011;64614;32.062;34.834;2023-04-29T14:57:00;6.05;;;2.65;;
75935;SDS011;64614;32.062;34.834;2023-04-29T15:02:01;5.82;;;2.38;;
75935;SDS011;64614;32.062;34.834;2023-04-29T15:04:27;5.85;;;2.50;;
75935;SDS011;64614;32.062;34.834;2023-04-29T15:12:13;6.03;;;2.40;;
75935;SDS011;64614;32.062;34.834;2023-04-29T15:22:27;7.13;;;2.22;;
75935;SDS011;64614;32.062;34.834;2023-04-29T15:24:52;4.80;;;2.38;;
75935;SDS011;64614;32.062;34.834;2023-04-29T15:29:53;7.40;;;2.88;;
75935;SDS011;64614;32.062;34.834;2023-04-29T15:32:21;7.07;;;2.80;;
75935;SDS011;64614;32.062;34.834;2023-04-29T15:34:55;6.45;;;2.63;;
75935;SDS011;64614;32.062;34.834;2023-04-29T15:37:22;7.60;;;2.92;;
75935;SDS011;64614;32.062;34.834;2023-04-29T15:39:47;5.95;;;2.70;;
75935;SDS011;64614;32.062;34.834;2023-04-29T15:42:13;5.95;;;2.45;;
75935;SDS011;64614;32.062;34.834;2023-04-29T15:44:39;6.07;;;2.70;;
75935;SDS011;64614;32.062;34.834;2023-04-29T15:47:04;5.32;;;2.15;;
75935;SDS011;64614;32.062;34.834;2023-04-29T15:49:30;6.45;;;2.47;;
75935;SDS011;64614;32.062;34.834;2023-04-29T15:55:09;5.88;;;2.35;;
75935;SDS011;64614;32.062;34.834;2023-04-29T15:57:36;6.40;;;2.50;;
75935;SDS011;64614;32.062;34.834;2023-04-29T16:00:06;7.25;;;2.67;;
75935;SDS011;64614;32.062;34.834;2023-04-29T16:02:33;7.18;;;2.58;;
75935;SDS011;64614;32.062;34.834;2023-04-29T16:04:59;7.13;;;2.65;;
75935;SDS011;64614;32.062;34.834;2023-04-29T16:07:25;6.00;;;2.70;;
75935;SDS011;64614;32.062;34.834;2023-04-29T16:09:51;6.38;;;2.42;;
75935;SDS011;64614;32.062;34.834;2023-04-29T16:12:16;5.82;;;2.67;;
75935;SDS011;64614;32.062;34.834;2023-04-29T16:14:42;5.85;;;2.60;;
75935;SDS011;64614;32.062;34.834;2023-04-29T16:17:08;7.00;;;2.63;;
75935;SDS011;64614;32.062;34.834;2023-04-29T16:19:33;5.53;;;2.63;;
75935;SDS011;64614;32.062;34.834;2023-04-29T16:22:05;7.65;;;3.03;;
75935;SDS011;64614;32.062;34.834;2023-04-29T16:24:30;6.97;;;2.63;;
75935;SDS011;64614;32.062;34.834;2023-04-29T16:26:56;7.30;;;2.65;;
75935;SDS011;64614;32.062;34.834;2023-04-29T16:29:23;5.88;;;2.70;;
75935;SDS011;64614;32.062;34.834;2023-04-29T16:31:49;6.15;;;2.85;;
75935;SDS011;64614;32.062;34.834;2023-04-29T16:34:15;6.40;;;2.90;;
75935;SDS011;64614;32.062;34.834;2023-04-29T16:36:40;7.03;;;2.70;;
75935;SDS011;64614;32.062;34.834;2023-04-29T16:39:06;7.47;;;3.13;;
75935;SDS011;64614;32.062;34.834;2023-04-29T16:41:33;5.97;;;2.78;;
75935;SDS011;64614;32.062;34.834;2023-04-29T16:43:58;5.95;;;2.47;;
75935;SDS011;64614;32.062;34.834;2023-04-29T16:46:24;7.10;;;2.60;;
75935;SDS011;64614;32.062;34.834;2023-04-29T16:48:53;6.75;;;2.47;;
75935;SDS011;64614;32.062;34.834;2023-04-29T16:54:33;8.15;;;2.55;;
75935;SDS011;64614;32.062;34.834;2023-04-29T16:56:59;4.88;;;2.20;;
75935;SDS011;64614;32.062;34.834;2023-04-29T16:59:25;6.25;;;2.30;;
75935;SDS011;64614;32.062;34.834;2023-04-29T17:01:51;5.40;;;2.70;;
75935;SDS011;64614;32.062;34.834;2023-04-29T17:04:18;6.10;;;2.40;;
75935;SDS011;64614;32.062;34.834;2023-04-29T17:06:44;5.35;;;2.20;;
75935;SDS011;64614;32.062;34.834;2023-04-29T17:09:09;6.18;;;2.10;;